CDT,Max TemperatureF,Mean TemperatureF,Min TemperatureF,Max Dew PointF,MeanDew PointF,Min DewpointF,Max Humidity, Mean Humidity, Min Humidity, Max Sea Level PressureIn, Mean Sea Level PressureIn, Min Sea Level PressureIn, Max VisibilityMiles, Mean VisibilityMiles, Min VisibilityMiles, Max Wind SpeedMPH, Mean Wind SpeedMPH, Max Gust SpeedMPH,PrecipitationIn, CloudCover, Events, WindDirDegrees
2013-7-1,73,64,54,53,46,32,72,56,39,30.26,30.22,30.14,10,10,10,18,8,23,0.00,1,,77
2013-7-2,73,62,51,42,37,28,59,39,19,30.22,30.17,30.12,10,10,10,13,6,15,0.00,0,,108
2013-7-3,82,66,49,52,46,39,80,54,28,30.11,30.05,29.98,10,10,10,12,4,15,0.00,0,,128
2013-7-4,86,70,54,60,54,42,75,57,39,29.98,29.92,29.86,10,10,10,16,8,22,0.00,1,,184
2013-7-5,88,78,67,61,59,56,63,50,37,29.87,29.83,29.78,10,10,10,25,13,32,0.00,3,Thunderstorm,189
2013-7-6,82,74,66,68,65,60,84,71,58,29.89,29.86,29.81,10,8,0,17,9,23,0.34,6,Fog-Rain-Thunderstorm,181
2013-7-7,69,61,53,65,60,51,93,86,78,30.00,29.90,29.85,10,2,0,17,9,23,T,8,Fog-Rain-Thunderstorm,92
2013-7-8,79,67,55,63,56,52,93,76,58,30.06,30.01,29.97,10,5,0,9,4,13,0.00,6,Fog,122
2013-7-9,73,64,55,63,57,52,93,83,73,30.01,29.88,29.80,10,5,0,22,7,29,0.22,5,Fog-Rain,103
2013-7-10,80,69,58,55,52,49,86,62,37,30.04,29.98,29.89,10,10,10,20,10,26,T,3,Rain,309
2013-7-11,82,68,53,56,54,49,86,62,37,30.12,30.06,29.98,10,10,10,15,6,20,0.00,0,,197
2013-7-12,87,77,66,62,59,56,68,54,40,30.00,29.94,29.89,10,10,10,25,14,33,0.00,3,,183
2013-7-13,76,72,67,67,64,59,87,73,58,30.08,30.01,29.93,10,9,3,16,8,24,0.14,8,Rain-Thunderstorm,173
2013-7-14,78,74,69,67,63,60,84,72,60,30.22,30.15,30.08,10,10,7,20,6,24,0.03,8,Rain,210
2013-7-15,81,73,65,68,65,61,87,75,62,30.27,30.23,30.19,10,9,3,13,7,15,0.11,6,Rain,92
2013-7-16,92,78,64,71,64,60,87,64,41,30.20,30.17,30.13,10,7,1,21,10,26,0.00,3,,180
2013-7-17,92,81,70,68,66,64,79,60,41,30.20,30.16,30.10,10,10,10,20,9,29,0.00,2,,248
2013-7-18,94,81,68,72,67,64,84,64,44,30.09,29.87,29.62,10,10,6,26,12,35,0.07,4,Thunderstorm,201
2013-7-19,81,73,65,68,60,50,90,63,36,29.84,29.74,29.62,10,10,9,21,11,28,T,4,Rain-Thunderstorm,298
2013-7-20,69,61,53,51,46,42,77,59,40,30.03,29.97,29.85,10,10,10,15,8,18,0.00,3,,75
2013-7-21,72,62,51,55,48,42,83,65,47,30.04,29.96,29.85,10,10,10,15,10,21,0.00,3,,100
2013-7-22,83,70,56,66,56,47,90,68,46,29.84,29.72,29.63,10,10,7,24,12,32,0.04,6,Rain,231
2013-7-23,75,64,53,51,49,47,80,59,38,30.04,29.98,29.84,10,10,10,17,6,24,0.00,2,,343
2013-7-24,76,64,51,55,51,47,83,64,44,30.07,30.02,29.94,10,10,10,16,5,20,T,4,,222
2013-7-25,81,69,57,61,56,54,93,66,39,29.94,29.91,29.87,10,7,0,25,8,33,0.13,4,Fog-Rain-Thunderstorm,224
2013-7-26,61,55,49,55,51,42,93,78,62,30.11,29.96,29.86,10,6,0,22,8,29,0.10,8,Fog-Rain,10
2013-7-27,56,53,49,49,46,43,89,81,72,30.08,29.96,29.89,10,9,2,20,11,29,0.38,7,Rain,330
2013-7-28,71,61,51,52,49,46,89,67,44,30.07,29.99,29.93,10,10,10,17,8,22,0.00,6,,338
2013-7-29,76,62,47,53,49,44,86,64,41,30.13,30.10,30.07,10,10,10,10,3,15,0.00,2,,180
2013-7-30,72,67,61,61,58,53,87,77,66,30.12,30.08,30.05,10,10,9,13,7,15,0.04,6,Rain,207
2013-7-31,78,69,59,61,54,47,93,66,38,30.04,29.99,29.95,10,10,2,24,10,31,0.13,3,Rain,284